sensor_id;sensor_type;location;lat;lon;timestamp;pressure;altitude;pressure_sealevel;temperature;humidity
55486;BME280;49383;-25.924;28.194;2023-04-22T00:01:31;84944.11;;;23.59;30.31
55486;BME280;49383;-25.924;28.194;2023-04-22T00:03:56;84943.80;;;23.59;30.29
55486;BME280;49383;-25.924;28.194;2023-04-22T00:06:21;84944.11;;;23.58;30.30
55486;BME280;49383;-25.924;28.194;2023-04-22T00:08:47;84944.84;;;23.57;30.35
55486;BME280;49383;-25.924;28.194;2023-04-22T00:11:12;84950.93;;;23.57;30.37
55486;BME280;49383;-25.924;28.194;2023-04-22T00:13:37;84949.88;;;23.56;30.32
55486;BME280;49383;-25.924;28.194;2023-04-22T00:16:03;84946.06;;;23.56;30.30
55486;BME280;49383;-25.924;28.194;2023-04-22T00:18:28;84941.25;;;23.56;30.30
55486;BME280;49383;-25.924;28.194;2023-04-22T00:20:53;84941.30;;;23.55;30.32
55486;BME280;49383;-25.924;28.194;2023-04-22T00:23:19;84939.57;;;23.31;30.34
55486;BME280;49383;-25.924;28.194;2023-04-22T00:25:45;84938.99;;;23.52;30.37
55486;BME280;49383;-25.924;28.194;2023-04-22T00:28:10;84934.23;;;23.51;30.38
55486;BME280;49383;-25.924;28.194;2023-04-22T00:30:35;84928.17;;;23.51;30.40
55486;BME280;49383;-25.924;28.194;2023-04-22T00:33:00;84921.18;;;23.50;30.41
55486;BME280;49383;-25.924;28.194;2023-04-22T00:35:26;84917.76;;;23.27;30.35
55486;BME280;49383;-25.924;28.194;2023-04-22T00:37:51;84911.85;;;23.50;30.41
55486;BME280;49383;-25.924;28.194;2023-04-22T00:40:17;84912.63;;;23.49;30.37
55486;BME280;49383;-25.924;28.194;2023-04-22T00:42:43;84910.72;;;23.48;30.45
55486;BME280;49383;-25.924;28.194;2023-04-22T00:45:10;84907.84;;;23.47;30.37
55486;BME280;49383;-25.924;28.194;2023-04-22T00:47:33;84908.74;;;23.47;30.41
55486;BME280;49383;-25.924;28.194;2023-04-22T00:49:58;84908.20;;;23.46;30.40
55486;BME280;49383;-25.924;28.194;2023-04-22T00:52:24;84909.16;;;23.47;30.39
55486;BME280;49383;-25.924;28.194;2023-04-22T00:54:49;84908.83;;;23.46;30.39
55486;BME280;49383;-25.924;28.194;2023-04-22T00:57:15;84908.89;;;23.23;30.40
55486;BME280;49383;-25.924;28.194;2023-04-22T00:59:40;84908.55;;;23.70;30.44
55486;BME280;49383;-25.924;28.194;2023-04-22T01:02:06;84907.91;;;23.43;30.45
55486;BME280;49383;-25.924;28.194;2023-04-22T01:04:31;84906.71;;;23.42;30.43
55486;BME280;49383;-25.924;28.194;2023-04-22T01:06:57;84904.77;;;23.42;30.40
55486;BME280;49383;-25.924;28.194;2023-04-22T01:09:22;84906.22;;;23.42;30.44
55486;BME280;49383;-25.924;28.194;2023-04-22T01:11:47;84905.03;;;23.69;30.43
55486;BME280;49383;-25.924;28.194;2023-04-22T01:14:13;84909.18;;;23.41;30.44
55486;BME280;49383;-25.924;28.194;2023-04-22T01:16:39;84909.90;;;23.46;30.43
55486;BME280;49383;-25.924;28.194;2023-04-22T01:19:05;84913.47;;;23.49;30.35
55486;BME280;49383;-25.924;28.194;2023-04-22T01:21:30;84911.03;;;23.43;30.41
55486;BME280;49383;-25.924;28.194;2023-04-22T01:23:55;84906.78;;;23.40;30.44
55486;BME280;49383;-25.924;28.194;2023-04-22T01:26:20;84902.34;;;23.38;30.45
55486;BME280;49383;-25.924;28.194;2023-04-22T01:28:46;84902.86;;;23.37;30.46
55486;BME280;49383;-25.924;28.194;2023-04-22T01:31:12;84904.86;;;23.36;30.47
55486;BME280;49383;-25.924;28.194;2023-04-22T01:33:38;84904.98;;;23.35;30.48
55486;BME280;49383;-25.924;28.194;2023-04-22T01:36:03;84907.44;;;23.35;30.48
55486;BME280;49383;-25.924;28.194;2023-04-22T01:38:28;84909.84;;;23.36;30.43
55486;BME280;49383;-25.924;28.194;2023-04-22T01:40:53;84910.31;;;23.34;30.48
55486;BME280;49383;-25.924;28.194;2023-04-22T01:43:19;84913.50;;;23.34;30.46
55486;BME280;49383;-25.924;28.194;2023-04-22T01:45:44;84914.95;;;23.33;30.48
55486;BME280;49383;-25.924;28.194;2023-04-22T01:48:10;84909.35;;;23.33;30.50
55486;BME280;49383;-25.924;28.194;2023-04-22T01:50:37;84908.30;;;23.32;30.45
55486;BME280;49383;-25.924;28.194;2023-04-22T01:53:02;84904.59;;;23.31;30.48
55486;BME280;49383;-25.924;28.194;2023-04-22T01:55:28;84905.01;;;23.31;30.51
55486;BME280;49383;-25.924;28.194;2023-04-22T01:57:53;84906.56;;;23.30;30.49
55486;BME280;49383;-25.924;28.194;2023-04-22T02:00:19;84906.86;;;23.30;30.45
55486;BME280;49383;-25.924;28.194;2023-04-22T02:02:45;84909.64;;;23.30;30.47
55486;BME280;49383;-25.924;28.194;2023-04-22T02:05:10;84912.83;;;23.07;30.49
55486;BME280;49383;-25.924;28.194;2023-04-22T02:07:36;84908.27;;;23.55;30.53
55486;BME280;49383;-25.924;28.194;2023-04-22T02:10:02;84902.33;;;23.28;30.49
55486;BME280;49383;-25.924;28.194;2023-04-22T02:12:28;84895.47;;;23.27;30.51
55486;BME280;49383;-25.924;28.194;2023-04-22T02:14:53;84895.72;;;23.27;30.54
55486;BME280;49383;-25.924;28.194;2023-04-22T02:17:18;84897.70;;;23.26;30.53
55486;BME280;49383;-25.924;28.194;2023-04-22T02:19:44;84904.13;;;23.25;30.50
55486;BME280;49383;-25.924;28.194;2023-04-22T02:22:10;84901.88;;;23.25;30.51
55486;BME280;49383;-25.924;28.194;2023-04-22T02:24:36;84900.42;;;23.24;30.51
55486;BME280;49383;-25.924;28.194;2023-04-22T02:27:02;84896.96;;;23.24;30.57
55486;BME280;49383;-25.924;28.194;2023-04-22T02:29:27;84890.45;;;23.23;30.54
55486;BME280;49383;-25.924;28.194;2023-04-22T02:31:52;84891.05;;;23.23;30.50
55486;BME280;49383;-25.924;28.194;2023-04-22T02:34:18;84899.02;;;23.23;30.53
55486;BME280;49383;-25.924;28.194;2023-04-22T02:36:43;84900.16;;;23.23;30.52
55486;BME280;49383;-25.924;28.194;2023-04-22T02:39:08;84900.10;;;23.22;30.51
55486;BME280;49383;-25.924;28.194;2023-04-22T02:41:33;84900.27;;;23.47;30.51
55486;BME280;49383;-25.924;28.194;2023-04-22T02:43:59;84905.53;;;23.20;30.54
55486;BME280;49383;-25.924;28.194;2023-04-22T02:46:24;84908.75;;;23.20;30.57
55486;BME280;49383;-25.924;28.194;2023-04-22T02:48:49;84904.78;;;23.19;30.56
55486;BME280;49383;-25.924;28.194;2023-04-22T02:51:15;84910.60;;;23.18;30.54
55486;BME280;49383;-25.924;28.194;2023-04-22T02:53:40;84909.96;;;23.17;30.52
55486;BME280;49383;-25.924;28.194;2023-04-22T02:56:06;84914.58;;;23.17;30.53
55486;BME280;49383;-25.924;28.194;2023-04-22T02:58:31;84919.56;;;23.67;30.54
55486;BME280;49383;-25.924;28.194;2023-04-22T03:00:56;84919.04;;;23.44;30.55
55486;BME280;49383;-25.924;28.194;2023-04-22T03:03:22;84919.71;;;23.43;30.49
55486;BME280;49383;-25.924;28.194;2023-04-22T03:05:47;84919.59;;;23.16;30.53
55486;BME280;49383;-25.924;28.194;2023-04-22T03:08:12;84916.46;;;23.15;30.49
55486;BME280;49383;-25.924;28.194;2023-04-22T03:10:38;84917.13;;;23.15;30.49
55486;BME280;49383;-25.924;28.194;2023-04-22T03:13:03;84918.18;;;23.41;30.54
55486;BME280;49383;-25.924;28.194;2023-04-22T03:15:28;84918.85;;;22.91;30.51
55486;BME280;49383;-25.924;28.194;2023-04-22T03:17:54;84918.32;;;23.13;30.53
55486;BME280;49383;-25.924;28.194;2023-04-22T03:20:20;84914.28;;;23.12;30.56
55486;BME280;49383;-25.924;28.194;2023-04-22T03:22:45;84913.85;;;23.12;30.52
55486;BME280;49383;-25.924;28.194;2023-04-22T03:25:11;84914.96;;;23.12;30.56
55486;BME280;49383;-25.924;28.194;2023-04-22T03:27:36;84918.55;;;23.60;30.53
55486;BME280;49383;-25.924;28.194;2023-04-22T03:30:02;84916.15;;;23.11;30.52
55486;BME280;49383;-25.924;28.194;2023-04-22T03:32:27;84915.22;;;23.09;30.51
55486;BME280;49383;-25.924;28.194;2023-04-22T03:34:53;84915.78;;;23.08;30.53
55486;BME280;49383;-25.924;28.194;2023-04-22T03:37:19;84916.50;;;23.07;30.50
55486;BME280;49383;-25.924;28.194;2023-04-22T03:39:44;84919.81;;;23.07;30.54
55486;BME280;49383;-25.924;28.194;2023-04-22T03:42:11;84920.21;;;22.84;30.59
55486;BME280;49383;-25.924;28.194;2023-04-22T03:44:36;84922.15;;;23.06;30.57
55486;BME280;49383;-25.924;28.194;2023-04-22T03:47:02;84929.21;;;23.05;30.56
55486;BME280;49383;-25.924;28.194;2023-04-22T03:49:26;84938.58;;;22.82;30.55
55486;BME280;49383;-25.924;28.194;2023-04-22T03:51:52;84939.36;;;23.04;30.57
55486;BME280;49383;-25.924;28.194;2023-04-22T03:54:17;84943.63;;;23.04;30.58
55486;BME280;49383;-25.924;28.194;2023-04-22T03:56:43;84947.89;;;23.30;30.55
55486;BME280;49383;-25.924;28.194;2023-04-22T03:59:08;84948.76;;;23.03;30.59
55486;BME280;49383;-25.924;28.194;2023-04-22T04:01:34;84952.82;;;22.80;30.58
55486;BME280;49383;-25.924;28.194;2023-04-22T04:04:00;84950.65;;;23.02;30.55
55486;BME280;49383;-25.924;28.194;2023-04-22T04:06:25;84953.09;;;23.01;30.56
55486;BME280;49383;-25.924;28.194;2023-04-22T04:08:51;84956.74;;;23.27;30.57
55486;BME280;49383;-25.924;28.194;2023-04-22T04:11:16;84963.97;;;23.27;30.57
55486;BME280;49383;-25.924;28.194;2023-04-22T04:13:41;84962.06;;;22.99;30.57
55486;BME280;49383;-25.924;28.194;2023-04-22T04:16:07;84959.25;;;23.26;30.54
55486;BME280;49383;-25.924;28.194;2023-04-22T04:18:32;84966.73;;;23.26;30.55
55486;BME280;49383;-25.924;28.194;2023-04-22T04:20:57;84969.93;;;22.98;30.58
55486;BME280;49383;-25.924;28.194;2023-04-22T04:23:22;84969.96;;;23.47;30.53
55486;BME280;49383;-25.924;28.194;2023-04-22T04:25:47;84974.10;;;23.01;30.53
55486;BME280;49383;-25.924;28.194;2023-04-22T04:28:13;84975.40;;;23.26;30.51
55486;BME280;49383;-25.924;28.194;2023-04-22T04:30:38;84980.99;;;22.97;30.55
55486;BME280;49383;-25.924;28.194;2023-04-22T04:33:04;84989.80;;;23.23;30.57
55486;BME280;49383;-25.924;28.194;2023-04-22T04:35:29;84985.75;;;23.23;30.55
55486;BME280;49383;-25.924;28.194;2023-04-22T04:37:54;85007.40;;;22.95;30.55
55486;BME280;49383;-25.924;28.194;2023-04-22T04:40:19;85007.25;;;22.95;30.55
55486;BME280;49383;-25.924;28.194;2023-04-22T04:42:45;84996.87;;;22.93;30.56
55486;BME280;49383;-25.924;28.194;2023-04-22T04:45:10;85003.40;;;23.42;30.56
55486;BME280;49383;-25.924;28.194;2023-04-22T04:47:35;85001.66;;;22.94;30.56
55486;BME280;49383;-25.924;28.194;2023-04-22T04:50:00;85000.46;;;22.93;30.59
55486;BME280;49383;-25.924;28.194;2023-04-22T04:52:25;84999.79;;;23.19;30.56
55486;BME280;49383;-25.924;28.194;2023-04-22T04:54:51;85000.15;;;22.93;30.56
55486;BME280;49383;-25.924;28.194;2023-04-22T04:57:16;85002.30;;;23.20;30.57
55486;BME280;49383;-25.924;28.194;2023-04-22T04:59:43;85004.62;;;22.93;30.57
55486;BME280;49383;-25.924;28.194;2023-04-22T05:02:07;85012.33;;;23.22;30.56
55486;BME280;49383;-25.924;28.194;2023-04-22T05:04:32;85018.13;;;23.46;30.59
55486;BME280;49383;-25.924;28.194;2023-04-22T05:06:57;85017.08;;;23.00;30.50
55486;BME280;49383;-25.924;28.194;2023-04-22T05:09:22;85017.96;;;23.02;30.65
55486;BME280;49383;-25.924;28.194;2023-04-22T05:11:48;85021.80;;;23.06;30.85
55486;BME280;49383;-25.924;28.194;2023-04-22T05:14:13;85016.97;;;23.12;30.81
55486;BME280;49383;-25.924;28.194;2023-04-22T05:16:38;85020.67;;;23.18;30.69
55486;BME280;49383;-25.924;28.194;2023-04-22T05:19:04;85014.22;;;23.25;30.66
55486;BME280;49383;-25.924;28.194;2023-04-22T05:21:29;85015.07;;;23.31;30.44
55486;BME280;49383;-25.924;28.194;2023-04-22T05:23:55;85018.43;;;23.36;30.46
55486;BME280;49383;-25.924;28.194;2023-04-22T05:26:20;85014.79;;;23.18;30.38
55486;BME280;49383;-25.924;28.194;2023-04-22T05:28:46;85016.64;;;23.22;30.40
55486;BME280;49383;-25.924;28.194;2023-04-22T05:31:11;85019.63;;;23.03;30.33
55486;BME280;49383;-25.924;28.194;2023-04-22T05:33:36;85016.84;;;23.50;30.30
55486;BME280;49383;-25.924;28.194;2023-04-22T05:36:01;85019.73;;;23.09;30.18
55486;BME280;49383;-25.924;28.194;2023-04-22T05:38:27;85032.44;;;23.34;30.26
55486;BME280;49383;-25.924;28.194;2023-04-22T05:40:53;85036.82;;;23.14;30.09
55486;BME280;49383;-25.924;28.194;2023-04-22T05:43:18;85042.05;;;23.62;30.13
55486;BME280;49383;-25.924;28.194;2023-04-22T05:45:43;85043.88;;;23.44;30.14
55486;BME280;49383;-25.924;28.194;2023-04-22T05:48:09;85045.57;;;23.26;30.18
55486;BME280;49383;-25.924;28.194;2023-04-22T05:50:34;85044.78;;;23.77;30.01
55486;BME280;49383;-25.924;28.194;2023-04-22T05:53:00;85046.35;;;23.39;29.93
55486;BME280;49383;-25.924;28.194;2023-04-22T05:55:30;85051.89;;;23.70;29.87
55486;BME280;49383;-25.924;28.194;2023-04-22T05:57:51;85060.61;;;23.76;29.85
55486;BME280;49383;-25.924;28.194;2023-04-22T06:00:18;85067.09;;;23.60;30.01
55486;BME280;49383;-25.924;28.194;2023-04-22T06:02:42;85075.40;;;23.85;30.00
55486;BME280;49383;-25.924;28.194;2023-04-22T06:05:08;85084.45;;;23.66;30.09
55486;BME280;49383;-25.924;28.194;2023-04-22T06:07:32;85086.47;;;23.72;30.02
55486;BME280;49383;-25.924;28.194;2023-04-22T06:09:58;85081.75;;;23.77;30.04
55486;BME280;49383;-25.924;28.194;2023-04-22T06:12:23;85078.57;;;23.57;29.93
55486;BME280;49383;-25.924;28.194;2023-04-22T06:14:49;85074.60;;;23.90;30.02
55486;BME280;49383;-25.924;28.194;2023-04-22T06:17:16;85074.56;;;23.94;30.03
55486;BME280;49383;-25.924;28.194;2023-04-22T06:19:38;85076.76;;;23.78;29.93
55486;BME280;49383;-25.924;28.194;2023-04-22T06:22:04;85079.44;;;23.88;29.81
55486;BME280;49383;-25.924;28.194;2023-04-22T06:24:30;85084.90;;;24.01;29.82
55486;BME280;49383;-25.924;28.194;2023-04-22T06:26:54;85084.68;;;23.85;29.73
55486;BME280;49383;-25.924;28.194;2023-04-22T06:29:24;85096.17;;;23.94;29.71
55486;BME280;49383;-25.924;28.194;2023-04-22T06:31:45;85102.74;;;24.03;29.66
55486;BME280;49383;-25.924;28.194;2023-04-22T06:34:11;85104.61;;;24.13;29.52
55486;BME280;49383;-25.924;28.194;2023-04-22T06:36:36;85110.90;;;24.39;29.61
55486;BME280;49383;-25.924;28.194;2023-04-22T06:39:01;85118.79;;;24.20;29.57
55486;BME280;49383;-25.924;28.194;2023-04-22T06:41:27;85127.15;;;24.22;29.59
55486;BME280;49383;-25.924;28.194;2023-04-22T06:43:52;85133.19;;;24.26;29.61
55486;BME280;49383;-25.924;28.194;2023-04-22T06:46:18;85130.31;;;24.55;29.58
55486;BME280;49383;-25.924;28.194;2023-04-22T06:48:43;85125.00;;;24.37;29.54
55486;BME280;49383;-25.924;28.194;2023-04-22T06:51:08;85118.40;;;24.37;29.57
55486;BME280;49383;-25.924;28.194;2023-04-22T06:53:34;85121.26;;;24.42;29.56
55486;BME280;49383;-25.924;28.194;2023-04-22T06:56:00;85116.83;;;24.51;29.42
55486;BME280;49383;-25.924;28.194;2023-04-22T06:58:26;85114.89;;;24.54;29.51
55486;BME280;49383;-25.924;28.194;2023-04-22T07:00:51;85108.93;;;24.53;29.53
55486;BME280;49383;-25.924;28.194;2023-04-22T07:03:17;85106.16;;;24.62;29.45
55486;BME280;49383;-25.924;28.194;2023-04-22T07:05:41;85106.99;;;24.67;29.42
55486;BME280;49383;-25.924;28.194;2023-04-22T07:08:07;85108.37;;;24.69;29.43
55486;BME280;49383;-25.924;28.194;2023-04-22T07:10:33;85107.82;;;24.73;29.40
55486;BME280;49383;-25.924;28.194;2023-04-22T07:12:58;85103.94;;;24.78;29.40
55486;BME280;49383;-25.924;28.194;2023-04-22T07:15:23;85103.17;;;24.84;29.35
55486;BME280;49383;-25.924;28.194;2023-04-22T07:17:49;85105.92;;;24.83;29.41
55486;BME280;49383;-25.924;28.194;2023-04-22T07:20:17;85105.54;;;24.85;29.41
55486;BME280;49383;-25.924;28.194;2023-04-22T07:22:40;85105.28;;;24.62;29.42
55486;BME280;49383;-25.924;28.194;2023-04-22T07:25:06;85108.22;;;24.92;29.40
55486;BME280;49383;-25.924;28.194;2023-04-22T07:27:30;85112.04;;;24.94;29.38
55486;BME280;49383;-25.924;28.194;2023-04-22T07:29:56;85113.39;;;24.99;29.40
55486;BME280;49383;-25.924;28.194;2023-04-22T07:32:21;85112.19;;;24.97;29.41
55486;BME280;49383;-25.924;28.194;2023-04-22T07:34:47;85113.74;;;25.02;29.40
55486;BME280;49383;-25.924;28.194;2023-04-22T07:37:12;85117.08;;;25.07;29.39
55486;BME280;49383;-25.924;28.194;2023-04-22T07:39:37;85113.76;;;24.77;29.33
55486;BME280;49383;-25.924;28.194;2023-04-22T07:42:03;85110.58;;;25.03;29.35
55486;BME280;49383;-25.924;28.194;2023-04-22T07:44:28;85111.93;;;24.83;29.40
55486;BME280;49383;-25.924;28.194;2023-04-22T07:46:54;85106.65;;;24.81;29.48
55486;BME280;49383;-25.924;28.194;2023-04-22T07:49:19;85106.38;;;25.03;29.54
55486;BME280;49383;-25.924;28.194;2023-04-22T07:51:44;85110.59;;;24.79;29.55
55486;BME280;49383;-25.924;28.194;2023-04-22T07:54:10;85107.25;;;25.01;29.53
55486;BME280;49383;-25.924;28.194;2023-04-22T07:56:36;85105.81;;;25.00;29.61
55486;BME280;49383;-25.924;28.194;2023-04-22T07:59:02;85112.49;;;25.02;29.57
55486;BME280;49383;-25.924;28.194;2023-04-22T08:01:26;85112.54;;;25.02;29.60
55486;BME280;49383;-25.924;28.194;2023-04-22T08:03:51;85110.41;;;24.54;29.60
55486;BME280;49383;-25.924;28.194;2023-04-22T08:06:17;85108.02;;;24.78;29.62
55486;BME280;49383;-25.924;28.194;2023-04-22T08:08:42;85113.19;;;24.80;29.59
55486;BME280;49383;-25.924;28.194;2023-04-22T08:11:08;85120.09;;;25.08;29.52
55486;BME280;49383;-25.924;28.194;2023-04-22T08:13:33;85120.21;;;25.10;29.58
55486;BME280;49383;-25.924;28.194;2023-04-22T08:15:59;85114.08;;;24.64;29.51
55486;BME280;49383;-25.924;28.194;2023-04-22T08:18:24;85114.04;;;25.16;29.54
55486;BME280;49383;-25.924;28.194;2023-04-22T08:20:50;85111.46;;;25.18;29.57
55486;BME280;49383;-25.924;28.194;2023-04-22T08:23:15;85111.26;;;24.93;29.46
55486;BME280;49383;-25.924;28.194;2023-04-22T08:25:40;85110.27;;;25.21;29.49
55486;BME280;49383;-25.924;28.194;2023-04-22T08:28:06;85110.12;;;25.23;29.58
55486;BME280;49383;-25.924;28.194;2023-04-22T08:30:31;85109.00;;;24.97;29.53
55486;BME280;49383;-25.924;28.194;2023-04-22T08:32:56;85106.31;;;25.27;29.51
55486;BME280;49383;-25.924;28.194;2023-04-22T08:35:21;85098.93;;;25.28;29.51
55486;BME280;49383;-25.924;28.194;2023-04-22T08:37:47;85102.11;;;25.29;29.44
55486;BME280;49383;-25.924;28.194;2023-04-22T08:40:12;85099.90;;;25.31;29.47
55486;BME280;49383;-25.924;28.194;2023-04-22T08:42:37;85093.61;;;25.33;29.51
55486;BME280;49383;-25.924;28.194;2023-04-22T08:45:03;85085.50;;;25.34;29.43
55486;BME280;49383;-25.924;28.194;2023-04-22T08:47:27;85083.33;;;25.34;29.45
55486;BME280;49383;-25.924;28.194;2023-04-22T08:49:54;85079.42;;;25.11;29.41
55486;BME280;49383;-25.924;28.194;2023-04-22T08:52:18;85072.67;;;25.40;29.46
55486;BME280;49383;-25.924;28.194;2023-04-22T08:54:44;85072.64;;;25.41;29.43
55486;BME280;49383;-25.924;28.194;2023-04-22T08:57:10;85074.89;;;25.15;29.35
55486;BME280;49383;-25.924;28.194;2023-04-22T08:59:36;85072.88;;;25.43;29.44
55486;BME280;49383;-25.924;28.194;2023-04-22T09:02:01;85070.67;;;25.44;29.35
55486;BME280;49383;-25.924;28.194;2023-04-22T09:04:25;85066.35;;;25.45;29.30
55486;BME280;49383;-25.924;28.194;2023-04-22T09:06:50;85062.30;;;25.45;29.32
55486;BME280;49383;-25.924;28.194;2023-04-22T09:09:16;85068.63;;;25.19;29.33
55486;BME280;49383;-25.924;28.194;2023-04-22T09:11:42;85070.68;;;25.46;29.40
55486;BME280;49383;-25.924;28.194;2023-04-22T09:14:07;85068.45;;;25.47;29.35
55486;BME280;49383;-25.924;28.194;2023-04-22T09:16:32;85065.11;;;25.21;29.39
55486;BME280;49383;-25.924;28.194;2023-04-22T09:18:58;85059.81;;;25.49;29.28
55486;BME280;49383;-25.924;28.194;2023-04-22T09:21:25;85061.52;;;25.23;29.28
55486;BME280;49383;-25.924;28.194;2023-04-22T09:23:50;85058.03;;;25.49;29.29
55486;BME280;49383;-25.924;28.194;2023-04-22T09:26:13;85053.80;;;25.51;29.22
55486;BME280;49383;-25.924;28.194;2023-04-22T09:28:38;85046.02;;;25.50;29.27
55486;BME280;49383;-25.924;28.194;2023-04-22T09:31:03;85035.62;;;25.51;29.32
55486;BME280;49383;-25.924;28.194;2023-04-22T09:33:30;85032.53;;;25.51;29.24
55486;BME280;49383;-25.924;28.194;2023-04-22T09:35:55;85033.46;;;25.50;29.26
55486;BME280;49383;-25.924;28.194;2023-04-22T09:38:20;85036.43;;;25.50;29.23
55486;BME280;49383;-25.924;28.194;2023-04-22T09:40:45;85032.62;;;25.50;29.29
55486;BME280;49383;-25.924;28.194;2023-04-22T09:43:13;85026.14;;;25.49;29.30
55486;BME280;49383;-25.924;28.194;2023-04-22T09:45:38;85028.38;;;25.49;29.27
55486;BME280;49383;-25.924;28.194;2023-04-22T09:48:06;85025.18;;;25.49;29.30
55486;BME280;49383;-25.924;28.194;2023-04-22T09:50:28;85023.54;;;25.22;29.29
55486;BME280;49383;-25.924;28.194;2023-04-22T09:52:55;85021.97;;;25.48;29.30
55486;BME280;49383;-25.924;28.194;2023-04-22T09:55:19;85014.16;;;25.47;29.31
55486;BME280;49383;-25.924;28.194;2023-04-22T09:57:44;85011.29;;;25.46;29.34
55486;BME280;49383;-25.924;28.194;2023-04-22T10:00:15;85007.43;;;25.46;29.32
55486;BME280;49383;-25.924;28.194;2023-04-22T10:02:35;85006.13;;;25.19;29.32
55486;BME280;49383;-25.924;28.194;2023-04-22T10:05:01;85006.56;;;25.44;29.31
55486;BME280;49383;-25.924;28.194;2023-04-22T10:07:27;85008.91;;;25.42;29.30
55486;BME280;49383;-25.924;28.194;2023-04-22T10:09:52;85004.47;;;25.41;29.35
55486;BME280;49383;-25.924;28.194;2023-04-22T10:12:17;85000.06;;;25.40;29.37
55486;BME280;49383;-25.924;28.194;2023-04-22T10:14:43;84993.12;;;25.40;29.38
55486;BME280;49383;-25.924;28.194;2023-04-22T10:17:09;84985.93;;;25.25;29.02
55486;BME280;49383;-25.924;28.194;2023-04-22T10:19:34;84984.80;;;25.68;29.04
55486;BME280;49383;-25.924;28.194;2023-04-22T10:22:01;84988.27;;;25.62;29.09
55486;BME280;49383;-25.924;28.194;2023-04-22T10:24:27;84990.19;;;25.31;29.08
55486;BME280;49383;-25.924;28.194;2023-04-22T10:26:54;84988.33;;;25.55;29.22
55486;BME280;49383;-25.924;28.194;2023-04-22T10:29:19;84984.81;;;25.75;29.15
55486;BME280;49383;-25.924;28.194;2023-04-22T10:31:42;84988.35;;;25.51;29.18
55486;BME280;49383;-25.924;28.194;2023-04-22T10:34:11;84986.53;;;25.51;29.18
55486;BME280;49383;-25.924;28.194;2023-04-22T10:36:33;84979.97;;;25.49;29.18
55486;BME280;49383;-25.924;28.194;2023-04-22T10:41:23;84980.70;;;25.46;29.25
55486;BME280;49383;-25.924;28.194;2023-04-22T10:43:55;84974.47;;;25.45;29.23
55486;BME280;49383;-25.924;28.194;2023-04-22T10:48:48;84955.01;;;25.42;29.24
55486;BME280;49383;-25.924;28.194;2023-04-22T10:51:05;84950.74;;;25.42;29.20
55486;BME280;49383;-25.924;28.194;2023-04-22T10:53:35;84952.14;;;25.40;29.22
55486;BME280;49383;-25.924;28.194;2023-04-22T10:55:57;84948.97;;;25.39;29.20
55486;BME280;49383;-25.924;28.194;2023-04-22T10:58:22;84944.37;;;25.38;29.19
55486;BME280;49383;-25.924;28.194;2023-04-22T11:00:46;84933.88;;;25.35;29.21
55486;BME280;49383;-25.924;28.194;2023-04-22T11:03:15;84935.69;;;25.33;29.20
55486;BME280;49383;-25.924;28.194;2023-04-22T11:05:38;84931.00;;;25.48;29.26
55486;BME280;49383;-25.924;28.194;2023-04-22T11:08:05;84931.46;;;25.40;29.34
55486;BME280;49383;-25.924;28.194;2023-04-22T11:10:34;84928.36;;;25.13;29.43
55486;BME280;49383;-25.924;28.194;2023-04-22T11:12:53;84923.02;;;25.11;29.33
55486;BME280;49383;-25.924;28.194;2023-04-22T11:15:18;84921.01;;;25.31;29.30
55486;BME280;49383;-25.924;28.194;2023-04-22T11:17:44;84909.94;;;25.06;29.33
55486;BME280;49383;-25.924;28.194;2023-04-22T11:20:09;84909.24;;;25.28;29.32
55486;BME280;49383;-25.924;28.194;2023-04-22T11:22:36;84917.33;;;25.04;29.34
55486;BME280;49383;-25.924;28.194;2023-04-22T11:25:00;84917.12;;;25.25;29.29
55486;BME280;49383;-25.924;28.194;2023-04-22T11:27:25;84918.63;;;25.24;29.31
55486;BME280;49383;-25.924;28.194;2023-04-22T11:32:14;84904.80;;;25.48;29.29
55486;BME280;49383;-25.924;28.194;2023-04-22T11:34:40;84901.69;;;24.98;29.32
55486;BME280;49383;-25.924;28.194;2023-04-22T11:37:05;84895.97;;;25.19;29.32
55486;BME280;49383;-25.924;28.194;2023-04-22T11:39:35;84891.82;;;25.18;29.30
55486;BME280;49383;-25.924;28.194;2023-04-22T11:41:56;84886.46;;;24.95;29.30
55486;BME280;49383;-25.924;28.194;2023-04-22T11:44:23;84887.36;;;25.16;29.26
55486;BME280;49383;-25.924;28.194;2023-04-22T11:46:47;84892.01;;;24.94;29.28
55486;BME280;49383;-25.924;28.194;2023-04-22T11:49:13;84890.12;;;25.15;29.29
55486;BME280;49383;-25.924;28.194;2023-04-22T11:54:03;84891.17;;;25.13;29.33
55486;BME280;49383;-25.924;28.194;2023-04-22T11:56:29;84889.76;;;25.13;29.32
55486;BME280;49383;-25.924;28.194;2023-04-22T11:58:54;84882.47;;;25.11;29.32
55486;BME280;49383;-25.924;28.194;2023-04-22T12:01:19;84879.76;;;25.11;29.31
55486;BME280;49383;-25.924;28.194;2023-04-22T12:03:45;84879.38;;;25.10;29.33
55486;BME280;49383;-25.924;28.194;2023-04-22T12:06:10;84885.34;;;25.08;29.31
55486;BME280;49383;-25.924;28.194;2023-04-22T12:08:37;84885.51;;;25.06;29.33
55486;BME280;49383;-25.924;28.194;2023-04-22T12:11:05;84880.35;;;24.83;29.37
55486;BME280;49383;-25.924;28.194;2023-04-22T12:13:27;84878.29;;;25.31;29.35
55486;BME280;49383;-25.924;28.194;2023-04-22T12:15:54;84883.80;;;25.04;29.41
55486;BME280;49383;-25.924;28.194;2023-04-22T12:20:43;84898.30;;;24.80;29.36
55486;BME280;49383;-25.924;28.194;2023-04-22T12:23:12;84896.02;;;25.28;29.40
55486;BME280;49383;-25.924;28.194;2023-04-22T12:25:33;84902.23;;;25.00;29.41
55486;BME280;49383;-25.924;28.194;2023-04-22T12:27:58;84896.41;;;24.77;29.33
55486;BME280;49383;-25.924;28.194;2023-04-22T12:30:23;84888.11;;;24.99;29.35
55486;BME280;49383;-25.924;28.194;2023-04-22T12:32:49;84886.93;;;25.25;29.36
55486;BME280;49383;-25.924;28.194;2023-04-22T12:35:14;84889.81;;;24.97;29.36
55486;BME280;49383;-25.924;28.194;2023-04-22T12:37:40;84883.88;;;24.95;29.36
55486;BME280;49383;-25.924;28.194;2023-04-22T12:40:06;84883.04;;;24.94;29.39
55486;BME280;49383;-25.924;28.194;2023-04-22T12:42:30;84882.14;;;24.94;29.32